Time;durP1;ratioP1;P1;durP2;ratioP2;P2;SDS_P1;SDS_P2;PMS_P1;PMS_P2;Temp;Humidity;BMP_temperature;BMP_pressure;BME280_temperature;BME280_humidity;BME280_pressure;Samples;Min_cycle;Max_cycle;Signal;HPM_P1;HPM_P2
2022/01/16 00:00:20;;;;;;;15.03;13.33;;;;;;;-0.78;64.11;93579.19;5010412;28;20207;-83
2022/01/16 00:05:37;;;;;;;15.00;13.50;;;;;;;-0.90;64.73;93537.09;4964510;28;20283;-83
2022/01/16 00:08:02;;;;;;;15.60;13.80;;;;;;;-0.67;65.82;93573.53;4989756;28;20201;-83
2022/01/16 00:10:28;;;;;;;16.33;14.80;;;;;;;-0.67;66.99;93519.69;4995064;28;20191;-83
2022/01/16 00:12:58;;;;;;;14.77;13.57;;;;;;;-0.46;66.30;93573.47;5012118;28;21014;-82
2022/01/16 00:15:24;;;;;;;13.57;12.47;;;;;;;-0.66;69.18;93575.13;5011294;28;20192;-84
2022/01/16 00:20:31;;;;;;;16.27;14.63;;;;;;;-0.55;71.15;93603.59;4994570;28;20203;-81
2022/01/16 00:22:57;;;;;;;16.73;15.07;;;;;;;-0.61;70.83;93626.63;5012552;28;20859;-83
2022/01/16 00:25:23;;;;;;;15.10;13.67;;;;;;;-0.59;71.09;93645.97;5013349;28;20195;-83
2022/01/16 00:27:49;;;;;;;16.13;14.67;;;;;;;-0.65;71.04;93621.06;5012228;28;20214;-84
2022/01/16 00:30:16;;;;;;;13.60;12.40;;;;;;;-0.63;70.63;93654.22;5010467;28;20716;-79
2022/01/16 00:32:41;;;;;;;14.47;13.07;;;;;;;-0.49;69.82;93694.38;4993032;28;20204;-84
2022/01/16 00:35:08;;;;;;;14.87;13.57;;;;;;;-0.79;70.42;93552.75;4990543;28;20203;-84
2022/01/16 00:37:33;;;;;;;14.70;13.50;;;;;;;-0.56;70.59;93565.34;5010425;28;20219;-85
2022/01/16 00:39:59;;;;;;;15.27;14.03;;;;;;;-0.65;70.10;93603.13;5011459;28;20222;-82
2022/01/16 00:42:24;;;;;;;14.37;13.07;;;;;;;-0.58;69.11;93595.47;4993345;28;20303;-85
2022/01/16 00:44:49;;;;;;;15.30;13.97;;;;;;;-0.56;69.32;93496.88;4993550;28;20183;-83
2022/01/16 00:47:16;;;;;;;13.60;12.53;;;;;;;-0.63;69.67;93513.19;4991777;28;20264;-83
2022/01/16 00:49:41;;;;;;;14.60;13.20;;;;;;;-0.60;69.50;93493.13;4992360;28;20257;-84
2022/01/16 00:52:08;;;;;;;14.47;13.17;;;;;;;-0.68;69.78;93421.50;4991908;28;20228;-83
2022/01/16 00:54:33;;;;;;;13.50;12.53;;;;;;;-0.53;70.88;93468.28;4992655;28;20295;-83
2022/01/16 00:56:59;;;;;;;13.67;12.47;;;;;;;-0.52;70.80;93469.09;4991830;28;20232;-84
2022/01/16 00:59:24;;;;;;;14.00;12.90;;;;;;;-0.51;70.85;93470.66;4993001;28;20222;-83
2022/01/16 01:01:50;;;;;;;14.10;12.90;;;;;;;-0.57;70.21;93531.19;5004510;28;20296;-83
2022/01/16 01:04:16;;;;;;;15.53;14.13;;;;;;;-0.47;70.63;93547.00;5011209;28;20190;-82
2022/01/16 01:06:42;;;;;;;14.87;13.57;;;;;;;-0.42;71.12;93559.31;5011254;28;20223;-81
2022/01/16 01:09:07;;;;;;;13.87;12.87;;;;;;;-0.76;72.07;93483.16;5011560;28;20202;-83
2022/01/16 01:11:33;;;;;;;13.57;12.37;;;;;;;-0.46;71.21;93537.56;5011625;28;20231;-83
2022/01/16 01:16:38;;;;;;;14.63;13.43;;;;;;;-0.60;71.27;93533.34;5000856;28;21021;-81
2022/01/16 01:19:04;;;;;;;13.37;12.27;;;;;;;-0.52;70.61;93517.81;4990306;28;20303;-82
2022/01/16 01:21:31;;;;;;;14.43;13.53;;;;;;;-0.36;71.69;93555.97;4989587;28;20228;-83
2022/01/16 01:23:57;;;;;;;13.83;12.73;;;;;;;-0.45;71.14;93519.41;4988376;28;20180;-83
2022/01/16 01:26:33;;;;;;;13.30;12.27;;;;;;;-0.54;71.40;93522.31;4991715;28;20235;-82
2022/01/16 01:28:58;;;;;;;13.63;12.50;;;;;;;-0.47;71.30;93552.16;4991576;28;20187;-83
2022/01/16 01:31:26;;;;;;;13.63;12.43;;;;;;;-0.45;71.06;93550.19;4991399;28;20243;-83
2022/01/16 01:33:51;;;;;;;15.70;14.07;;;;;;;-0.93;71.20;93478.50;4990028;28;20188;-83
2022/01/16 01:36:17;;;;;;;15.37;13.97;;;;;;;-0.60;72.29;93521.31;4990864;28;20228;-82
2022/01/16 01:38:42;;;;;;;13.63;12.23;;;;;;;-0.45;71.37;93545.06;4990684;28;20204;-81
2022/01/16 01:41:08;;;;;;;13.90;12.70;;;;;;;-0.83;71.20;93525.13;4991067;28;20232;-80
2022/01/16 01:51:35;;;;;;;13.77;12.67;;;;;;;-0.52;72.14;93594.72;4990413;28;20252;-82
2022/01/16 01:54:01;;;;;;;15.00;13.63;;;;;;;-0.58;71.80;93582.66;4989118;28;20192;-84
2022/01/16 01:56:27;;;;;;;12.73;11.83;;;;;;;-0.61;73.38;93586.38;4992004;28;20681;-82
2022/01/16 01:58:56;;;;;;;15.73;14.33;;;;;;;-0.47;73.40;93589.84;4991943;28;20247;-84
2022/01/16 02:01:22;;;;;;;13.73;12.37;;;;;;;-0.72;72.87;93571.53;4998887;28;20216;-81
2022/01/16 02:03:49;;;;;;;13.83;12.70;;;;;;;-0.59;72.41;93569.03;4993416;28;20184;-82
2022/01/16 02:06:18;;;;;;;14.83;13.53;;;;;;;-0.89;73.71;93521.53;5010033;28;20234;-82
2022/01/16 02:08:46;;;;;;;15.77;14.47;;;;;;;-0.62;73.49;93589.13;5008751;28;21123;-80
2022/01/16 02:11:13;;;;;;;14.67;13.50;;;;;;;-0.86;73.55;93563.94;5009690;28;20262;-81
2022/01/16 02:13:55;;;;;;;15.97;14.57;;;;;;;-0.95;73.57;93560.69;5008991;28;20215;-82
2022/01/16 02:33:24;;;;;;;14.97;13.73;;;;;;;-0.88;74.23;93581.25;5010284;28;20255;-80
2022/01/16 02:35:54;;;;;;;16.03;14.63;;;;;;;-0.91;74.66;93579.88;5007993;28;20238;-81
2022/01/16 02:38:21;;;;;;;16.40;14.90;;;;;;;-0.90;74.64;93578.09;5009397;28;20188;-81
2022/01/16 02:40:58;;;;;;;16.60;15.00;;;;;;;-1.01;75.21;93565.81;5008365;28;20223;-80
2022/01/16 02:43:30;;;;;;;16.63;15.13;;;;;;;-1.09;75.46;93571.06;5010043;28;20187;-81
2022/01/16 02:46:35;;;;;;;17.40;15.13;;;;;;;-1.08;74.91;93568.31;5008930;28;20231;-80
2022/01/16 02:48:46;;;;;;;17.20;15.20;;;;;;;-1.08;75.66;93586.25;5009271;28;20191;-80
2022/01/16 02:51:19;;;;;;;16.53;15.03;;;;;;;-1.35;75.69;93576.72;5009101;28;20315;-81
2022/01/16 02:53:46;;;;;;;16.27;14.77;;;;;;;-1.24;75.77;93585.69;5010341;28;20183;-80
2022/01/16 02:56:12;;;;;;;17.47;15.90;;;;;;;-1.63;75.96;93543.38;5009428;28;20231;-81
2022/01/16 02:58:38;;;;;;;17.83;16.00;;;;;;;-1.69;75.99;93544.13;5008985;28;20226;-81
2022/01/16 03:01:04;;;;;;;18.83;17.07;;;;;;;-1.67;76.26;93554.94;5009896;28;20223;-81
2022/01/16 03:03:29;;;;;;;17.80;16.00;;;;;;;-1.71;76.50;93540.94;5008852;28;20286;-81
2022/01/16 03:05:54;;;;;;;17.30;15.70;;;;;;;-1.40;76.31;93585.94;5007587;28;21553;-81
2022/01/16 03:08:20;;;;;;;19.70;17.83;;;;;;;-1.63;77.17;93582.75;5010386;28;20207;-81
2022/01/16 03:11:13;;;;;;;19.37;17.40;;;;;;;-1.59;77.42;93558.38;5007887;28;20215;-81
2022/01/16 03:13:47;;;;;;;20.03;17.50;;;;;;;-1.36;77.01;93579.47;5008703;28;20187;-83
2022/01/16 03:16:17;;;;;;;19.33;17.13;;;;;;;-1.48;77.85;93571.50;5009803;28;20254;-83
2022/01/16 03:24:11;;;;;;;21.07;17.93;;;;;;;-1.60;78.45;93572.94;5009381;28;20218;-82
2022/01/16 03:26:36;;;;;;;21.73;17.57;;;;;;;-1.82;78.76;93564.44;5008582;28;20227;-83
2022/01/16 03:29:02;;;;;;;20.73;18.77;;;;;;;-1.62;79.00;93580.03;5008272;28;20203;-82
2022/01/16 03:31:28;;;;;;;19.63;17.57;;;;;;;-2.16;79.95;93535.31;5009311;28;20818;-91
2022/01/16 03:33:54;;;;;;;18.80;17.00;;;;;;;-1.91;78.95;93514.38;5009451;28;20214;-91
2022/01/16 03:36:20;;;;;;;21.37;18.97;;;;;;;-2.02;77.77;93514.03;5008998;28;20231;-88
2022/01/16 03:38:45;;;;;;;18.30;16.07;;;;;;;-2.05;78.15;93515.19;5009721;28;20218;-91
2022/01/16 03:41:11;;;;;;;18.33;16.43;;;;;;;-1.57;77.80;93582.03;5008992;28;20211;-91
2022/01/16 03:43:36;;;;;;;17.33;15.47;;;;;;;-2.07;77.59;93508.69;5010330;28;20195;-91
2022/01/16 03:46:03;;;;;;;17.53;16.00;;;;;;;-2.04;76.33;93524.44;5009268;28;20239;-91
2022/01/16 03:48:29;;;;;;;17.27;15.57;;;;;;;-1.97;77.00;93584.16;5009404;28;20195;-88
2022/01/16 03:50:55;;;;;;;17.73;16.13;;;;;;;-2.17;75.61;93546.53;5009751;28;20238;-90
2022/01/16 03:53:20;;;;;;;16.00;14.60;;;;;;;-1.96;76.03;93593.41;5010167;28;20188;-90
2022/01/16 03:55:46;;;;;;;14.93;13.50;;;;;;;-1.92;74.88;93586.97;5007744;28;20322;-91
2022/01/16 03:58:11;;;;;;;16.23;14.73;;;;;;;-2.12;74.49;93542.44;5007746;28;20183;-91
2022/01/16 04:00:37;;;;;;;15.00;13.63;;;;;;;-2.25;74.74;93544.88;5008859;28;20226;-89
2022/01/16 04:03:02;;;;;;;15.70;14.30;;;;;;;-1.92;74.99;93593.84;5009444;28;20249;-90
2022/01/16 04:05:28;;;;;;;17.30;15.57;;;;;;;-2.79;75.43;93458.47;5008852;28;20214;-90
2022/01/16 04:07:53;;;;;;;15.17;13.77;;;;;;;-2.08;76.50;93594.03;5009231;28;20198;-90
2022/01/16 04:10:21;;;;;;;18.33;16.60;;;;;;;-2.46;77.33;93562.69;5008899;28;20195;-89
2022/01/16 04:12:47;;;;;;;16.63;14.67;;;;;;;-2.03;78.13;93614.78;5007672;28;20187;-88
2022/01/16 04:17:39;;;;;;;16.63;15.03;;;;;;;-2.38;78.58;93590.72;5009636;28;20254;-88
2022/01/16 04:20:05;;;;;;;15.70;14.30;;;;;;;-2.64;77.39;93541.00;5006114;28;20441;-89
2022/01/16 04:22:31;;;;;;;16.20;14.63;;;;;;;-2.28;78.58;93621.94;5007226;28;20246;-89
2022/01/16 04:24:56;;;;;;;16.20;14.90;;;;;;;-2.07;76.52;93622.00;5008714;28;20191;-89
2022/01/16 04:27:22;;;;;;;16.43;14.93;;;;;;;-2.33;76.81;93600.41;5007742;28;20222;-89
2022/01/16 04:29:47;;;;;;;16.50;15.07;;;;;;;-2.22;77.26;93616.13;5010155;28;20207;-88
2022/01/16 04:32:13;;;;;;;16.87;15.27;;;;;;;-2.23;77.60;93588.97;5007709;28;20230;-90
2022/01/16 04:34:39;;;;;;;18.40;16.60;;;;;;;-2.31;78.77;93629.97;5007986;28;20211;-87
2022/01/16 04:37:06;;;;;;;16.77;15.17;;;;;;;-2.19;79.62;93638.78;5010485;28;20227;-89
2022/01/16 04:39:36;;;;;;;18.37;16.50;;;;;;;-1.99;78.62;93634.69;5010972;28;20230;-89
2022/01/16 04:44:52;;;;;;;17.23;15.63;;;;;;;-2.32;77.11;93546.53;5012918;28;20226;-88
2022/01/16 04:47:18;;;;;;;18.20;16.30;;;;;;;-1.82;76.26;93638.66;5011829;28;20276;-90
2022/01/16 04:49:43;;;;;;;17.37;15.73;;;;;;;-1.96;76.85;93601.09;5012293;28;20196;-90
2022/01/16 04:52:09;;;;;;;16.93;15.43;;;;;;;-1.90;77.93;93627.75;5013386;28;20235;-88
2022/01/16 04:54:34;;;;;;;17.70;15.17;;;;;;;-2.02;79.41;93591.56;4994501;28;20203;-87
2022/01/16 04:56:59;;;;;;;16.47;14.83;;;;;;;-2.02;77.70;93583.91;5012999;28;20224;-89
2022/01/16 04:59:25;;;;;;;18.13;16.53;;;;;;;-2.41;77.68;93559.63;5012152;28;20851;-86
2022/01/16 05:01:51;;;;;;;18.07;16.17;;;;;;;-2.05;78.16;93625.19;5010972;28;20743;-89
2022/01/16 05:04:17;;;;;;;18.23;16.53;;;;;;;-2.47;76.96;93530.44;5012697;28;20175;-87
2022/01/16 05:06:42;;;;;;;16.53;14.80;;;;;;;-1.92;77.62;93625.34;5010867;28;20223;-85
2022/01/16 05:09:07;;;;;;;17.77;16.07;;;;;;;-2.26;77.31;93561.19;5008609;28;20192;-85
2022/01/16 05:11:33;;;;;;;19.17;17.17;;;;;;;-2.14;76.33;93564.88;5010992;28;20231;-86
2022/01/16 05:16:37;;;;;;;17.50;15.87;;;;;;;-2.43;75.21;93500.97;5009745;28;20246;-86
2022/01/16 05:19:15;;;;;;;17.90;16.10;;;;;;;-1.79;75.79;93610.13;5012535;28;20249;-88
2022/01/16 05:21:44;;;;;;;17.90;16.07;;;;;;;-1.82;75.95;93618.19;5010323;28;20253;-87
2022/01/16 05:24:11;;;;;;;17.10;15.33;;;;;;;-1.77;75.88;93623.56;4994786;28;20187;-88
2022/01/16 05:26:43;;;;;;;18.50;16.67;;;;;;;-2.14;75.79;93574.31;5000028;28;20220;-91
2022/01/16 05:29:11;;;;;;;18.07;16.20;;;;;;;-1.81;75.13;93619.78;4974454;28;20200;-91
2022/01/16 05:31:36;;;;;;;17.93;16.30;;;;;;;-2.07;75.31;93587.97;5001311;28;20249;-92
2022/01/16 05:34:02;;;;;;;17.67;15.97;;;;;;;-2.25;75.53;93574.75;5011719;28;20219;-92
2022/01/16 05:36:27;;;;;;;16.90;15.20;;;;;;;-2.84;75.52;93479.44;5000031;28;20231;-92
2022/01/16 05:38:53;;;;;;;16.77;15.13;;;;;;;-1.76;75.28;93621.81;4990551;28;20232;-91
2022/01/16 05:41:19;;;;;;;18.43;16.70;;;;;;;-2.36;75.86;93549.63;4988830;28;20216;-91
2022/01/16 05:43:46;;;;;;;18.00;16.50;;;;;;;-1.66;75.11;93630.78;4991824;28;20172;-91
2022/01/16 05:46:12;;;;;;;16.97;15.40;;;;;;;-1.58;74.51;93634.19;4971185;28;20233;-92
2022/01/16 05:48:38;;;;;;;17.20;15.70;;;;;;;-1.92;74.38;93589.53;4972338;28;20189;-90
2022/01/16 05:51:03;;;;;;;18.27;16.50;;;;;;;-1.99;75.65;93632.16;4973036;28;20293;-91
2022/01/16 05:53:29;;;;;;;17.83;16.33;;;;;;;-2.11;74.91;93604.63;4972765;28;20216;-90
2022/01/16 05:55:54;;;;;;;17.47;15.63;;;;;;;-2.10;75.60;93601.91;4969597;28;20227;-92
2022/01/16 05:58:20;;;;;;;17.43;15.90;;;;;;;-2.05;76.56;93645.66;4987928;28;20181;-87
2022/01/16 06:00:47;;;;;;;16.57;14.83;;;;;;;-2.71;75.02;93512.84;4971145;28;20239;-89
2022/01/16 06:03:16;;;;;;;16.63;15.03;;;;;;;-2.92;75.43;93492.28;4972926;28;20195;-88
2022/01/16 06:05:41;;;;;;;16.53;14.83;;;;;;;-2.32;76.44;93613.00;4971569;28;20235;-89
2022/01/16 06:08:10;;;;;;;14.87;13.57;;;;;;;-1.72;74.25;93646.84;5001517;28;20248;-89
2022/01/16 06:10:39;;;;;;;18.00;16.13;;;;;;;-1.92;74.57;93638.16;4966992;28;20225;-89
2022/01/16 06:13:05;;;;;;;16.13;14.53;;;;;;;-1.98;75.41;93638.84;4966373;28;20192;-90
2022/01/16 06:15:31;;;;;;;15.60;14.20;;;;;;;-2.15;73.76;93588.84;4951434;29;20186;-89
2022/01/16 06:17:57;;;;;;;15.93;14.33;;;;;;;-2.08;73.50;93614.50;4951919;29;20197;-88
2022/01/16 06:20:23;;;;;;;17.93;16.23;;;;;;;-2.06;73.44;93631.28;4951306;29;20213;-89
2022/01/16 06:22:48;;;;;;;19.00;16.57;;;;;;;-2.17;73.57;93615.56;4966336;29;20196;-91
2022/01/16 06:25:15;;;;;;;28.77;19.27;;;;;;;-2.29;74.08;93607.53;4950991;29;20226;-91
2022/01/16 06:27:41;;;;;;;18.30;16.00;;;;;;;-2.22;75.57;93649.34;4950924;29;20233;-88
2022/01/16 06:30:10;;;;;;;17.13;15.43;;;;;;;-2.32;75.40;93633.47;4952249;29;20205;-90
2022/01/16 06:32:46;;;;;;;16.57;14.80;;;;;;;-1.91;73.25;93647.41;4949913;29;20236;-89
2022/01/16 06:35:16;;;;;;;14.93;13.73;;;;;;;-2.23;72.71;93581.28;4951206;29;20195;-89
2022/01/16 06:37:43;;;;;;;15.63;14.23;;;;;;;-1.84;72.96;93663.63;4972106;29;20232;-89
2022/01/16 06:40:09;;;;;;;15.50;14.30;;;;;;;-2.02;73.37;93604.38;4971255;28;20219;-89
2022/01/16 06:42:37;;;;;;;15.37;14.13;;;;;;;-1.91;71.89;93611.59;4971328;28;20311;-89
2022/01/16 06:45:03;;;;;;;18.63;16.73;;;;;;;-1.98;71.45;93605.56;4970258;28;20181;-88
2022/01/16 06:47:28;;;;;;;17.70;15.93;;;;;;;-2.14;72.26;93610.91;4985691;28;20942;-88
2022/01/16 06:49:54;;;;;;;16.03;14.53;;;;;;;-2.01;74.55;93671.69;4990602;28;20196;-82
2022/01/16 06:52:19;;;;;;;16.60;15.03;;;;;;;-1.85;74.25;93651.00;4989190;28;20246;-80
2022/01/16 06:54:45;;;;;;;16.10;14.57;;;;;;;-1.60;72.96;93675.31;4990619;28;20196;-80
2022/01/16 06:57:10;;;;;;;16.20;14.60;;;;;;;-1.83;74.35;93670.34;4990712;28;20291;-80
2022/01/16 06:59:38;;;;;;;15.40;14.03;;;;;;;-1.44;73.44;93679.44;4988935;28;20227;-80
2022/01/16 07:02:07;;;;;;;16.93;15.33;;;;;;;-1.39;73.73;93685.63;4988306;28;20217;-79
2022/01/16 07:04:33;;;;;;;16.63;15.10;;;;;;;-1.21;71.43;93667.28;5004374;28;20203;-81
2022/01/16 07:06:58;;;;;;;17.33;15.73;;;;;;;-1.31;72.16;93675.28;4990671;28;20227;-80
2022/01/16 07:09:23;;;;;;;17.07;15.43;;;;;;;-1.01;71.41;93686.22;4988258;28;20195;-80
2022/01/16 07:11:49;;;;;;;16.50;15.07;;;;;;;-1.10;71.01;93656.56;4991457;28;20219;-82
2022/01/16 07:14:14;;;;;;;17.40;15.70;;;;;;;-0.86;70.65;93702.31;4990938;28;20200;-82
2022/01/16 07:16:40;;;;;;;18.37;16.47;;;;;;;-1.01;72.40;93688.78;4991685;28;20230;-76
2022/01/16 07:19:05;;;;;;;20.83;18.37;;;;;;;-0.75;71.69;93702.66;4993321;28;20227;-79
2022/01/16 07:21:31;;;;;;;45.90;31.47;;;;;;;-0.91;72.67;93691.81;4992983;28;20234;-78
2022/01/16 07:23:56;;;;;;;21.03;18.77;;;;;;;-0.93;72.94;93668.16;4989714;28;20239;-83
2022/01/16 07:26:22;;;;;;;21.87;19.30;;;;;;;-0.88;72.93;93692.25;4997396;28;20258;-78
2022/01/16 07:28:47;;;;;;;23.10;17.20;;;;;;;-1.18;73.93;93665.16;5008345;28;20240;-78
2022/01/16 07:31:13;;;;;;;23.57;21.03;;;;;;;-1.19;74.33;93678.13;5007757;28;20218;-76
2022/01/16 07:33:38;;;;;;;21.90;19.53;;;;;;;-1.35;75.31;93679.16;5009488;28;20206;-84
2022/01/16 07:36:04;;;;;;;20.40;18.40;;;;;;;-1.32;76.14;93688.25;5000249;28;20248;-75
2022/01/16 07:38:30;;;;;;;20.53;18.43;;;;;;;-1.10;75.14;93692.41;4990207;28;20188;-80
2022/01/16 07:40:56;;;;;;;18.27;16.37;;;;;;;-1.11;77.24;93701.88;4988713;28;20224;-80
2022/01/16 07:43:22;;;;;;;22.03;19.73;;;;;;;-1.28;76.14;93699.72;4987618;28;20196;-84
2022/01/16 07:45:47;;;;;;;18.30;16.63;;;;;;;-1.23;75.79;93694.84;4971087;28;20231;-82
2022/01/16 07:48:12;;;;;;;17.70;16.17;;;;;;;-1.36;76.28;93662.22;4988475;28;20200;-82
2022/01/16 07:50:39;;;;;;;18.37;16.67;;;;;;;-0.98;76.91;93721.72;4992171;28;20981;-88
2022/01/16 07:53:06;;;;;;;20.07;18.00;;;;;;;-0.88;75.14;93711.97;5007488;28;20199;-82
2022/01/16 07:55:32;;;;;;;19.00;17.17;;;;;;;-1.00;74.87;93723.69;5006533;28;20234;-82
2022/01/16 07:57:58;;;;;;;19.30;17.20;;;;;;;-0.91;75.39;93730.25;4992816;28;20629;-82
2022/01/16 08:00:24;;;;;;;17.67;16.10;;;;;;;-0.84;74.93;93719.09;4988790;28;20270;-82
2022/01/16 08:02:50;;;;;;;18.17;16.47;;;;;;;-0.74;74.35;93724.72;4991584;28;20206;-85
2022/01/16 08:05:17;;;;;;;18.20;16.60;;;;;;;-0.58;73.82;93718.56;5006055;28;20191;-80
2022/01/16 08:07:44;;;;;;;20.00;17.90;;;;;;;-0.63;74.11;93731.94;4991758;28;20239;-88
2022/01/16 08:10:10;;;;;;;21.07;16.87;;;;;;;-0.59;73.98;93729.81;5008384;28;20191;-82
2022/01/16 08:12:36;;;;;;;18.43;16.53;;;;;;;-0.94;73.85;93681.94;5010203;28;20283;-86
2022/01/16 08:15:04;;;;;;;18.37;16.57;;;;;;;-0.57;72.89;93715.00;5014116;28;20211;-83
2022/01/16 08:17:29;;;;;;;19.60;17.57;;;;;;;-0.60;73.28;93728.19;5012140;28;20241;-80
2022/01/16 08:19:55;;;;;;;16.00;14.67;;;;;;;-0.61;73.87;93724.06;5012231;28;20248;-85
2022/01/16 08:22:20;;;;;;;20.40;18.27;;;;;;;-0.68;72.94;93725.75;5011811;28;20227;-82
2022/01/16 08:24:46;;;;;;;18.83;17.07;;;;;;;-0.84;72.39;93682.44;5010659;28;20226;-83
2022/01/16 08:27:13;;;;;;;19.20;17.13;;;;;;;-0.58;72.15;93669.84;5011592;28;20231;-83
2022/01/16 08:29:38;;;;;;;18.13;16.40;;;;;;;-0.91;72.04;93636.25;4994148;28;20929;-81
2022/01/16 08:32:04;;;;;;;21.33;19.07;;;;;;;-0.51;72.48;93704.00;5011203;28;20235;-81
2022/01/16 08:34:30;;;;;;;18.33;16.63;;;;;;;-0.71;72.02;93679.97;5012235;28;20196;-84
2022/01/16 08:36:55;;;;;;;19.87;18.07;;;;;;;-0.23;71.25;93686.88;5011245;28;20261;-80
2022/01/16 08:39:21;;;;;;;18.87;16.87;;;;;;;-0.36;71.61;93666.28;5012634;28;20303;-80
2022/01/16 08:41:46;;;;;;;24.87;19.40;;;;;;;-0.03;70.97;93706.53;5010508;28;20219;-80
2022/01/16 08:44:11;;;;;;;18.30;16.37;;;;;;;0.07;69.87;93708.78;5011654;28;20217;-78
2022/01/16 08:46:37;;;;;;;19.87;17.97;;;;;;;-0.15;71.66;93671.34;5010379;28;20223;-82
2022/01/16 08:49:02;;;;;;;44.83;27.87;;;;;;;-0.18;70.39;93669.94;5012701;28;20199;-85
2022/01/16 08:51:28;;;;;;;22.87;17.73;;;;;;;-0.03;70.14;93682.66;5010176;28;20230;-83
2022/01/16 08:53:54;;;;;;;21.10;17.67;;;;;;;0.02;69.68;93707.78;5012048;28;20203;-81
2022/01/16 08:56:20;;;;;;;20.33;18.33;;;;;;;-0.10;71.07;93689.53;5000562;28;20227;-79
2022/01/16 08:58:46;;;;;;;18.70;16.97;;;;;;;0.11;70.20;93698.94;5012084;28;20211;-88
2022/01/16 09:01:11;;;;;;;17.73;16.03;;;;;;;-0.34;69.25;93618.13;5011616;28;20236;-79
2022/01/16 09:03:38;;;;;;;20.17;17.93;;;;;;;-0.02;69.87;93659.38;5010623;28;20256;-79
2022/01/16 09:06:04;;;;;;;17.93;16.23;;;;;;;0.49;68.46;93697.53;5010870;28;20227;-77
2022/01/16 09:08:30;;;;;;;18.67;16.77;;;;;;;0.36;69.32;93675.16;5011007;28;20259;-79
2022/01/16 09:10:55;;;;;;;18.80;16.80;;;;;;;0.47;68.75;93690.03;4993509;28;20246;-79
2022/01/16 09:13:21;;;;;;;18.33;16.37;;;;;;;0.45;68.78;93694.56;5011131;28;20491;-79
2022/01/16 09:15:49;;;;;;;16.80;15.30;;;;;;;0.46;67.60;93693.59;5008205;28;20246;-80
2022/01/16 09:18:16;;;;;;;19.20;17.33;;;;;;;0.14;69.11;93660.81;5011544;28;20203;-80
2022/01/16 09:20:42;;;;;;;23.00;19.20;;;;;;;0.52;67.29;93661.19;5010089;28;20239;-81
2022/01/16 09:23:09;;;;;;;18.93;16.97;;;;;;;-0.03;68.23;93610.78;4993879;28;20195;-87
2022/01/16 09:25:35;;;;;;;18.93;16.97;;;;;;;0.49;67.95;93641.84;4994599;28;20263;-87
2022/01/16 09:28:01;;;;;;;21.90;18.00;;;;;;;0.62;66.70;93657.31;4994631;28;20199;-84
2022/01/16 09:30:27;;;;;;;17.43;14.50;;;;;;;0.76;67.14;93668.41;5010314;28;20199;-80
2022/01/16 09:32:53;;;;;;;21.50;17.83;;;;;;;0.76;67.43;93676.13;5010212;28;20227;-79
2022/01/16 09:35:20;;;;;;;18.63;16.67;;;;;;;0.97;66.95;93674.19;5009248;28;20207;-75
2022/01/16 09:37:46;;;;;;;20.00;17.90;;;;;;;0.82;67.66;93613.66;5010019;28;20261;-76
2022/01/16 09:40:14;;;;;;;18.37;16.67;;;;;;;1.24;66.40;93667.31;5010002;28;20219;-77
2022/01/16 09:42:40;;;;;;;19.77;17.73;;;;;;;0.83;66.15;93628.09;5010703;28;20208;-78
2022/01/16 09:45:09;;;;;;;19.67;17.63;;;;;;;0.56;67.51;93611.03;5010535;28;20270;-81
2022/01/16 09:47:36;;;;;;;17.87;16.00;;;;;;;0.89;66.90;93653.81;4962393;28;20241;-79
2022/01/16 09:50:04;;;;;;;28.77;20.50;;;;;;;1.11;66.10;93647.53;4960924;28;20274;-80
2022/01/16 09:52:34;;;;;;;24.10;21.00;;;;;;;1.03;67.22;93658.00;4958377;29;20217;-78
2022/01/16 09:55:00;;;;;;;61.90;31.23;;;;;;;0.84;67.39;93616.84;4961746;29;20192;-81
2022/01/16 09:57:25;;;;;;;23.97;21.03;;;;;;;1.10;67.27;93643.38;4959825;28;20324;-82
2022/01/16 09:59:52;;;;;;;25.43;20.43;;;;;;;0.98;67.74;93644.16;4959834;29;20205;-81
2022/01/16 10:02:17;;;;;;;34.00;23.93;;;;;;;1.01;67.88;93641.19;4958076;28;20236;-82
2022/01/16 10:04:43;;;;;;;31.20;23.37;;;;;;;1.05;67.77;93637.22;4959193;29;20193;-81
2022/01/16 10:07:15;;;;;;;22.53;19.77;;;;;;;1.18;67.93;93639.81;4960247;28;20226;-84
2022/01/16 10:09:43;;;;;;;22.93;20.57;;;;;;;1.23;67.17;93638.22;4968377;28;20205;-82
2022/01/16 10:12:18;;;;;;;21.60;19.40;;;;;;;1.18;67.07;93632.88;4959860;29;20320;-91
2022/01/16 10:14:52;;;;;;;22.33;19.20;;;;;;;0.67;68.08;93600.97;4959266;29;20231;-86
2022/01/16 10:17:21;;;;;;;24.37;20.73;;;;;;;0.89;68.13;93620.41;4960113;28;20276;-87
2022/01/16 10:20:00;;;;;;;30.87;22.33;;;;;;;0.92;68.32;93611.53;4957217;29;20221;-83
2022/01/16 10:22:38;;;;;;;41.10;27.33;;;;;;;1.17;67.57;93605.59;4969101;28;20248;-82
2022/01/16 10:25:05;;;;;;;36.67;25.17;;;;;;;1.46;67.27;93625.78;4978192;28;20266;-79
2022/01/16 10:27:35;;;;;;;27.20;21.83;;;;;;;0.91;68.05;93612.50;4966742;28;20251;-83
2022/01/16 10:30:04;;;;;;;30.00;22.43;;;;;;;1.11;67.86;93621.00;4963414;28;20201;-79
2022/01/16 10:32:31;;;;;;;28.67;22.07;;;;;;;1.11;68.82;93616.69;4994260;28;20765;-81
2022/01/16 10:35:17;;;;;;;29.07;21.83;;;;;;;1.23;67.59;93604.03;4975526;28;20196;-76
2022/01/16 10:37:47;;;;;;;29.47;22.33;;;;;;;0.99;66.98;93571.97;4978252;28;20220;-80
2022/01/16 10:40:17;;;;;;;25.03;22.33;;;;;;;1.14;67.06;93600.03;4979677;28;20211;-82
2022/01/16 10:42:52;;;;;;;26.23;22.10;;;;;;;1.30;66.88;93595.31;4947537;29;20222;-77
2022/01/16 10:45:22;;;;;;;70.07;32.90;;;;;;;1.24;66.96;93578.13;4951207;29;20189;-80
2022/01/16 10:47:57;;;;;;;43.03;25.17;;;;;;;1.43;65.76;93599.66;4983175;28;20224;-79
2022/01/16 10:50:32;;;;;;;25.93;21.93;;;;;;;1.22;67.05;93600.66;4988837;28;20293;-83
2022/01/16 10:53:10;;;;;;;40.80;25.93;;;;;;;1.47;66.26;93596.50;4990668;28;20180;-78
2022/01/16 10:55:49;;;;;;;34.70;23.53;;;;;;;1.17;66.40;93558.50;4988172;28;20367;-81
2022/01/16 10:58:24;;;;;;;28.10;21.70;;;;;;;1.65;68.79;93568.34;4989572;28;20237;-82
2022/01/16 11:01:00;;;;;;;35.10;24.40;;;;;;;1.90;70.82;93588.31;4991580;28;20231;-82
2022/01/16 11:03:28;;;;;;;32.03;23.70;;;;;;;2.09;67.89;93587.44;4988890;28;20219;-86
2022/01/16 11:05:55;;;;;;;28.33;23.30;;;;;;;1.88;65.26;93577.41;4989055;28;20241;-84
2022/01/16 11:08:25;;;;;;;35.83;23.20;;;;;;;1.77;64.72;93565.16;4989290;28;20184;-86
2022/01/16 11:10:55;;;;;;;29.30;23.60;;;;;;;1.49;66.11;93568.00;4994288;28;20249;-85
2022/01/16 11:13:24;;;;;;;30.43;23.63;;;;;;;1.72;65.88;93583.78;5007201;28;20175;-85
2022/01/16 11:15:52;;;;;;;24.60;22.00;;;;;;;1.85;64.87;93577.81;5002183;28;20220;-86
2022/01/16 11:18:21;;;;;;;48.20;28.43;;;;;;;1.88;65.11;93582.56;4972169;28;20212;-84
2022/01/16 11:21:14;;;;;;;31.13;24.83;;;;;;;1.74;65.21;93558.66;4985779;28;20227;-86
2022/01/16 11:26:22;;;;;;;35.30;28.23;;;;;;;2.04;65.32;93564.13;4985320;28;20235;-84
2022/01/16 11:28:50;;;;;;;31.70;24.57;;;;;;;2.28;64.54;93569.38;4987694;28;20203;-86
2022/01/16 11:31:16;;;;;;;29.90;24.10;;;;;;;2.10;64.05;93530.59;4989053;28;20247;-85
2022/01/16 11:33:43;;;;;;;29.70;23.40;;;;;;;2.32;63.55;93559.44;4989232;28;20191;-86
2022/01/16 11:36:13;;;;;;;38.20;28.70;;;;;;;2.39;64.89;93560.19;4988896;28;20231;-85
2022/01/16 11:38:44;;;;;;;29.43;23.80;;;;;;;2.43;64.07;93559.56;4989483;28;20188;-86
2022/01/16 11:41:16;;;;;;;35.03;23.93;;;;;;;2.38;63.54;93543.94;4990621;28;20373;-86
2022/01/16 11:43:46;;;;;;;27.83;23.20;;;;;;;2.60;62.29;93542.63;4988632;28;20196;-85
2022/01/16 11:46:21;;;;;;;32.07;24.07;;;;;;;2.49;62.51;93547.66;4992374;28;20236;-85
2022/01/16 11:48:49;;;;;;;31.07;22.73;;;;;;;2.66;62.47;93551.34;4994589;28;20214;-85
2022/01/16 11:51:37;;;;;;;29.20;22.20;;;;;;;2.52;61.85;93544.66;4990452;28;20895;-85
2022/01/16 11:54:08;;;;;;;29.33;22.90;;;;;;;2.26;62.73;93544.78;4992123;28;20204;-87
2022/01/16 11:56:40;;;;;;;33.50;24.10;;;;;;;2.25;63.05;93550.94;4987291;28;20226;-85
2022/01/16 11:59:11;;;;;;;37.83;24.93;;;;;;;2.33;62.40;93550.72;4996632;28;20223;-85
2022/01/16 12:01:47;;;;;;;28.90;22.93;;;;;;;2.59;62.53;93543.63;5013382;28;20246;-85
2022/01/16 12:04:28;;;;;;;33.17;23.67;;;;;;;2.47;62.56;93547.06;5013425;28;20841;-85
2022/01/16 12:06:54;;;;;;;35.60;25.70;;;;;;;2.61;62.98;93533.13;4998684;28;20292;-83
2022/01/16 12:09:36;;;;;;;26.60;23.00;;;;;;;2.71;62.29;93536.00;4995042;28;20184;-85